Time;durP1;ratioP1;P1;durP2;ratioP2;P2;SDS_P1;SDS_P2;PMS_P1;PMS_P2;Temp;Humidity;BMP_temperature;BMP_pressure;BME280_temperature;BME280_humidity;BME280_pressure;Samples;Min_cycle;Max_cycle;Signal;HPM_P1;HPM_P2
2022/02/08 00:01:20;;;;;;;;;;;;;;;;;;4784021;28;21292;-67
2022/02/08 00:03:46;;;;;;;;;;;;;;;;;;4779570;28;20405;-67
2022/02/08 00:08:38;;;;;;;;;;;;;;;;;;4783377;28;19945;-67
2022/02/08 00:11:05;;;;;;;;;;;;;;;;;;4773985;28;19924;-67
2022/02/08 00:13:31;;;;;;;;;;;;;;;;;;4775115;28;20011;-67
2022/02/08 00:15:57;;;;;;;;;;;;;;;;;;4779386;28;20577;-68
2022/02/08 00:18:23;;;;;;;;;;;;;;;;;;4763899;28;21718;-67
2022/02/08 00:20:49;;;;;;;;;;;;;;;;;;4782640;28;19957;-67
2022/02/08 00:23:15;;;;;;;;;;;;;;;;;;4783186;28;19918;-67
2022/02/08 00:25:41;;;;;;;;;;;;;;;;;;4775013;28;20755;-68
2022/02/08 00:28:07;;;;;;;;;;;;;;;;;;4781969;28;19918;-67
2022/02/08 00:30:33;;;;;;;;;;;;;;;;;;4781562;28;19922;-67
2022/02/08 00:32:59;;;;;;;;;;;;;;;;;;4782174;28;20653;-67
2022/02/08 00:35:25;;;;;;;;;;;;;;;;;;4782664;28;19918;-67
2022/02/08 00:37:51;;;;;;;;;;;;;;;;;;4778172;28;19929;-67
2022/02/08 00:40:19;;;;;;;;;;;;;;;;;;4786396;28;20622;-67
2022/02/08 00:42:45;;;;;;;;;;;;;;;;;;4785724;28;19918;-68
2022/02/08 00:47:49;;;;;;;;;;;;;;;;;;4788970;28;20384;-67
2022/02/08 00:50:15;;;;;;;;;;;;;;;;;;4801225;28;20397;-67
2022/02/08 00:52:41;;;;;;;;;;;;;;;;;;4796405;28;21438;-67
2022/02/08 00:55:07;;;;;;;;;;;;;;;;;;4800211;28;20016;-67
2022/02/08 00:57:33;;;;;;;;;;;;;;;;;;4798368;28;19929;-68
2022/02/08 00:59:59;;;;;;;;;;;;;;;;;;4804564;28;20577;-67
2022/02/08 01:02:25;;;;;;;;;;;;;;;;;;4798361;28;20099;-67
2022/02/08 01:04:57;;;;;;;;;;;;;;;;;;4806195;28;21533;-68
2022/02/08 01:07:23;;;;;;;;;;;;;;;;;;4800971;28;20989;-67
2022/02/08 01:12:19;;;;;;;;;;;;;;;;;;4800931;28;19969;-67
2022/02/08 01:14:47;;;;;;;;;;;;;;;;;;4800289;28;20054;-67
2022/02/08 01:17:14;;;;;;;;;;;;;;;;;;4787895;28;19914;-67
2022/02/08 01:19:48;;;;;;;;;;;;;;;;;;4806519;28;19937;-67
2022/02/08 01:22:14;;;;;;;;;;;;;;;;;;4795457;28;19968;-67
2022/02/08 01:24:40;;;;;;;;;;;;;;;;;;4805382;28;19917;-67
2022/02/08 01:27:10;;;;;;;;;;;;;;;;;;4800564;28;19918;-67
2022/02/08 01:29:55;;;;;;;;;;;;;;;;;;4786101;28;20042;-67
2022/02/08 01:35:46;;;;;;;;;;;;;;;;;;4801292;28;19918;-67
2022/02/08 01:40:22;;;;;;;;;;;;;;;;;;4800448;28;19925;-68
2022/02/08 01:50:31;;;;;;;;;;;;;;;;;;4811004;28;21101;-68
2022/02/08 01:52:57;;;;;;;;;;;;;;;;;;4806554;28;19928;-67
2022/02/08 01:55:23;;;;;;;;;;;;;;;;;;4805006;28;20675;-67
2022/02/08 01:57:49;;;;;;;;;;;;;;;;;;4802240;28;21169;-67
2022/02/08 02:00:15;;;;;;;;;;;;;;;;;;4818802;28;19975;-67
2022/02/08 02:02:41;;;;;;;;;;;;;;;;;;4796921;28;19918;-67
2022/02/08 02:05:07;;;;;;;;;;;;;;;;;;4816917;28;19918;-67
2022/02/08 02:07:33;;;;;;;;;;;;;;;;;;4824330;28;21785;-67
2022/02/08 02:09:59;;;;;;;;;;;;;;;;;;4811325;28;19924;-67
2022/02/08 02:12:25;;;;;;;;;;;;;;;;;;4800412;28;20771;-67
2022/02/08 02:14:51;;;;;;;;;;;;;;;;;;4814912;28;19921;-67
2022/02/08 02:17:18;;;;;;;;;;;;;;;;;;4811241;28;21786;-67
2022/02/08 02:19:44;;;;;;;;;;;;;;;;;;4820282;28;19917;-67
2022/02/08 02:22:10;;;;;;;;;;;;;;;;;;4813109;28;19924;-67
2022/02/08 02:24:36;;;;;;;;;;;;;;;;;;4817943;28;20036;-68
2022/02/08 02:27:03;;;;;;;;;;;;;;;;;;4818600;28;20069;-69
2022/02/08 02:29:30;;;;;;;;;;;;;;;;;;4817988;28;20004;-67
2022/02/08 02:31:56;;;;;;;;;;;;;;;;;;4810600;28;19922;-67
2022/02/08 02:34:25;;;;;;;;;;;;;;;;;;4815911;28;20063;-66
2022/02/08 02:36:51;;;;;;;;;;;;;;;;;;4810302;28;20055;-67
2022/02/08 02:39:17;;;;;;;;;;;;;;;;;;4808574;28;19918;-67
2022/02/08 02:41:43;;;;;;;;;;;;;;;;;;4806876;28;20068;-67
2022/02/08 02:44:09;;;;;;;;;;;;;;;;;;4803583;28;19944;-68
2022/02/08 02:46:35;;;;;;;;;;;;;;;;;;4808374;28;19922;-67
2022/02/08 02:49:01;;;;;;;;;;;;;;;;;;4808099;28;20035;-68
2022/02/08 02:51:28;;;;;;;;;;;;;;;;;;4813113;28;19922;-67
2022/02/08 02:53:54;;;;;;;;;;;;;;;;;;4812649;28;19918;-68
2022/02/08 02:56:20;;;;;;;;;;;;;;;;;;4817279;28;19987;-68
2022/02/08 02:58:46;;;;;;;;;;;;;;;;;;4786885;28;20028;-68
2022/02/08 03:01:25;;;;;;;;;;;;;;;;;;4806868;28;20768;-67
2022/02/08 03:20:05;;;;;;;;;;;;;;;;;;4807411;28;19917;-66
2022/02/08 03:22:30;;;;;;;;;;;;;;;;;;4808846;28;20009;-67
2022/02/08 03:24:56;;;;;;;;;;;;;;;;;;4813173;28;20052;-69
2022/02/08 03:27:22;;;;;;;;;;;;;;;;;;4810348;28;21120;-68
2022/02/08 03:29:48;;;;;;;;;;;;;;;;;;4807551;28;19914;-67
2022/02/08 03:32:17;;;;;;;;;;;;;;;;;;4807911;28;20668;-68
2022/02/08 03:34:43;;;;;;;;;;;;;;;;;;4788366;28;21946;-67
2022/02/08 03:37:09;;;;;;;;;;;;;;;;;;4805697;28;21700;-67
2022/02/08 03:39:39;;;;;;;;;;;;;;;;;;4811568;28;21686;-68
2022/02/08 03:42:17;;;;;;;;;;;;;;;;;;4810388;28;19918;-68
2022/02/08 03:44:48;;;;;;;;;;;;;;;;;;4811428;28;19924;-68
2022/02/08 03:47:15;;;;;;;;;;;;;;;;;;4815698;28;19993;-68
2022/02/08 03:49:42;;;;;;;;;;;;;;;;;;4810647;28;20343;-67
2022/02/08 03:52:08;;;;;;;;;;;;;;;;;;4807374;28;19921;-67
2022/02/08 03:54:34;;;;;;;;;;;;;;;;;;4791067;28;21176;-67
2022/02/08 03:57:02;;;;;;;;;;;;;;;;;;4814520;28;20140;-70
2022/02/08 03:59:28;;;;;;;;;;;;;;;;;;4809915;28;20001;-67
2022/02/08 04:04:45;;;;;;;;;;;;;;;;;;4817191;28;20394;-67
2022/02/08 04:07:20;;;;;;;;;;;;;;;;;;4790391;28;19925;-67
2022/02/08 04:09:48;;;;;;;;;;;;;;;;;;4815128;28;19980;-70
2022/02/08 04:12:24;;;;;;;;;;;;;;;;;;4813916;28;19968;-67
2022/02/08 04:41:43;;;;;;;;;;;;;;;;;;4760938;29;20041;-68
2022/02/08 04:46:57;;;;;;;;;;;;;;;;;;4758241;29;20489;-67
2022/02/08 04:49:23;;;;;;;;;;;;;;;;;;4754421;29;19962;-68
2022/02/08 04:51:54;;;;;;;;;;;;;;;;;;4759391;29;19990;-68
2022/02/08 04:54:40;;;;;;;;;;;;;;;;;;4772675;28;19917;-68
2022/02/08 04:57:33;;;;;;;;;;;;;;;;;;4813363;28;21258;-69
2022/02/08 05:27:38;;;;;;;;;;;;;;;;;;4816357;28;19925;-68
2022/02/08 05:45:30;;;;;;;;;;;;;;;;;;4813165;28;19928;-68
2022/02/08 05:47:59;;;;;;;;;;;;;;;;;;4813920;28;19936;-68
2022/02/08 05:55:26;;;;;;;;;;;;;;;;;;4823657;28;19956;-68
2022/02/08 05:57:52;;;;;;;;;;;;;;;;;;4824191;28;19976;-67
2022/02/08 06:00:20;;;;;;;;;;;;;;;;;;4819841;28;19921;-68
2022/02/08 06:02:50;;;;;;;;;;;;;;;;;;4822363;28;19918;-68
2022/02/08 06:05:19;;;;;;;;;;;;;;;;;;4818014;28;21522;-67
2022/02/08 06:07:44;;;;;;;;;;;;;;;;;;4818165;28;20423;-68
2022/02/08 06:10:11;;;;;;;;;;;;;;;;;;4812770;28;20650;-68
2022/02/08 06:12:36;;;;;;;;;;;;;;;;;;4795555;28;19921;-68
2022/02/08 06:15:07;;;;;;;;;;;;;;;;;;4811403;28;19941;-70
2022/02/08 06:17:33;;;;;;;;;;;;;;;;;;4817563;28;20767;-67
2022/02/08 06:20:00;;;;;;;;;;;;;;;;;;4815311;28;20157;-67
2022/02/08 06:22:26;;;;;;;;;;;;;;;;;;4812878;28;19918;-68
2022/02/08 06:24:53;;;;;;;;;;;;;;;;;;4814846;28;19960;-67
2022/02/08 06:27:27;;;;;;;;;;;;;;;;;;4811951;28;20000;-67
2022/02/08 06:29:53;;;;;;;;;;;;;;;;;;4808408;28;20076;-67
2022/02/08 06:32:19;;;;;;;;;;;;;;;;;;4823496;28;21734;-70
2022/02/08 06:34:45;;;;;;;;;;;;;;;;;;4815922;28;19918;-67
2022/02/08 06:37:14;;;;;;;;;;;;;;;;;;4818219;28;20009;-68
2022/02/08 06:39:42;;;;;;;;;;;;;;;;;;4817103;28;19913;-67
2022/02/08 06:42:09;;;;;;;;;;;;;;;;;;4827329;28;19917;-68
2022/02/08 06:44:35;;;;;;;;;;;;;;;;;;4797561;28;19913;-67
2022/02/08 06:47:01;;;;;;;;;;;;;;;;;;4818738;28;20680;-67
2022/02/08 06:49:27;;;;;;;;;;;;;;;;;;4828828;28;19940;-67
2022/02/08 06:51:53;;;;;;;;;;;;;;;;;;4812215;28;22183;-67
2022/02/08 06:54:19;;;;;;;;;;;;;;;;;;4814175;28;20008;-68
2022/02/08 06:56:46;;;;;;;;;;;;;;;;;;4814888;28;20713;-67
2022/02/08 06:59:15;;;;;;;;;;;;;;;;;;4824236;28;20592;-68
2022/02/08 07:01:41;;;;;;;;;;;;;;;;;;4824727;28;20084;-68
2022/02/08 07:04:11;;;;;;;;;;;;;;;;;;4814652;28;21238;-67
2022/02/08 07:06:37;;;;;;;;;;;;;;;;;;4814048;28;20719;-67
2022/02/08 07:09:03;;;;;;;;;;;;;;;;;;4810887;28;19918;-67
2022/02/08 07:11:30;;;;;;;;;;;;;;;;;;4818519;28;19937;-67
2022/02/08 07:13:58;;;;;;;;;;;;;;;;;;4814291;28;20079;-69
2022/02/08 07:16:24;;;;;;;;;;;;;;;;;;4815809;28;19913;-68
2022/02/08 07:18:50;;;;;;;;;;;;;;;;;;4816523;28;20797;-68
2022/02/08 07:21:17;;;;;;;;;;;;;;;;;;4816309;28;20560;-68
2022/02/08 07:23:43;;;;;;;;;;;;;;;;;;4814995;28;19917;-68
2022/02/08 07:26:09;;;;;;;;;;;;;;;;;;4814730;28;20131;-67
2022/02/08 07:28:39;;;;;;;;;;;;;;;;;;4818442;28;20204;-70
2022/02/08 07:31:13;;;;;;;;;;;;;;;;;;4807017;28;21865;-68
2022/02/08 07:33:43;;;;;;;;;;;;;;;;;;4799560;28;19929;-67
2022/02/08 07:36:24;;;;;;;;;;;;;;;;;;4800702;28;19949;-70
2022/02/08 07:38:51;;;;;;;;;;;;;;;;;;4815609;28;20048;-70
2022/02/08 07:43:49;;;;;;;;;;;;;;;;;;4821151;28;19937;-69
2022/02/08 07:46:15;;;;;;;;;;;;;;;;;;4822614;28;20621;-68
2022/02/08 07:48:41;;;;;;;;;;;;;;;;;;4809170;28;20044;-68
2022/02/08 07:51:09;;;;;;;;;;;;;;;;;;4803438;28;19992;-69
2022/02/08 07:53:35;;;;;;;;;;;;;;;;;;4802289;28;20195;-69
2022/02/08 07:56:02;;;;;;;;;;;;;;;;;;4808303;28;20937;-69
2022/02/08 07:58:29;;;;;;;;;;;;;;;;;;4807142;28;19918;-69
2022/02/08 08:00:55;;;;;;;;;;;;;;;;;;4805054;28;19925;-68
2022/02/08 08:03:22;;;;;;;;;;;;;;;;;;4809592;28;19951;-68
2022/02/08 08:05:48;;;;;;;;;;;;;;;;;;4813396;28;20562;-68
2022/02/08 08:08:14;;;;;;;;;;;;;;;;;;4807941;28;19922;-68
2022/02/08 08:10:45;;;;;;;;;;;;;;;;;;4783581;28;20691;-68
2022/02/08 08:13:12;;;;;;;;;;;;;;;;;;4792939;28;20858;-69
2022/02/08 08:15:41;;;;;;;;;;;;;;;;;;4806259;28;20007;-68
2022/02/08 08:20:52;;;;;;;;;;;;;;;;;;4805500;28;20648;-68
2022/02/08 08:23:18;;;;;;;;;;;;;;;;;;4809484;28;19918;-68
2022/02/08 08:25:45;;;;;;;;;;;;;;;;;;4810169;28;21032;-68
2022/02/08 08:28:11;;;;;;;;;;;;;;;;;;4800597;28;19934;-68
2022/02/08 08:30:37;;;;;;;;;;;;;;;;;;4811379;28;20019;-68
2022/02/08 08:33:03;;;;;;;;;;;;;;;;;;4800439;28;20069;-70
2022/02/08 08:35:29;;;;;;;;;;;;;;;;;;4807311;28;19917;-67
2022/02/08 08:38:02;;;;;;;;;;;;;;;;;;4805077;28;19926;-69
2022/02/08 08:51:03;;;;;;;;;;;;;;;;;;4799538;28;19941;-67
2022/02/08 08:53:32;;;;;;;;;;;;;;;;;;4796339;28;19953;-69
2022/02/08 08:55:58;;;;;;;;;;;;;;;;;;4799089;28;19922;-68
2022/02/08 08:58:24;;;;;;;;;;;;;;;;;;4800055;28;19925;-68
2022/02/08 09:00:51;;;;;;;;;;;;;;;;;;4795680;28;19969;-68
2022/02/08 09:03:17;;;;;;;;;;;;;;;;;;4805045;28;20016;-68
2022/02/08 09:05:43;;;;;;;;;;;;;;;;;;4798397;28;19928;-69
2022/02/08 09:08:09;;;;;;;;;;;;;;;;;;4805230;28;19922;-68
2022/02/08 09:10:47;;;;;;;;;;;;;;;;;;4798603;28;21990;-68
2022/02/08 09:13:25;;;;;;;;;;;;;;;;;;4796074;28;20185;-68
2022/02/08 09:21:42;;;;;;;;;;;;;;;;;;4802270;28;19928;-68
2022/02/08 09:27:04;;;;;;;;;;;;;;;;;;4799123;28;21614;-68
2022/02/08 09:32:15;;;;;;;;;;;;;;;;;;4796411;28;19921;-68
2022/02/08 09:34:41;;;;;;;;;;;;;;;;;;4792111;28;20000;-67
2022/02/08 09:37:07;;;;;;;;;;;;;;;;;;4803202;28;20622;-67
2022/02/08 09:39:33;;;;;;;;;;;;;;;;;;4795660;28;19918;-68
2022/02/08 09:42:00;;;;;;;;;;;;;;;;;;4801659;28;20065;-68
2022/02/08 09:44:26;;;;;;;;;;;;;;;;;;4795812;28;19929;-68
2022/02/08 09:46:52;;;;;;;;;;;;;;;;;;4780307;28;19914;-68
2022/02/08 09:49:18;;;;;;;;;;;;;;;;;;4788998;28;19933;-68
2022/02/08 09:51:50;;;;;;;;;;;;;;;;;;4774693;28;19917;-68
2022/02/08 09:54:18;;;;;;;;;;;;;;;;;;4790851;28;19918;-68
2022/02/08 09:56:45;;;;;;;;;;;;;;;;;;4792336;28;19925;-69
2022/02/08 09:59:11;;;;;;;;;;;;;;;;;;4775187;28;19956;-68
2022/02/08 10:01:38;;;;;;;;;;;;;;;;;;4792871;28;19993;-69
2022/02/08 10:04:04;;;;;;;;;;;;;;;;;;4790959;28;20620;-68
2022/02/08 10:06:30;;;;;;;;;;;;;;;;;;4795167;28;20028;-69
2022/02/08 10:08:57;;;;;;;;;;;;;;;;;;4800697;28;20544;-69
2022/02/08 10:11:27;;;;;;;;;;;;;;;;;;4793613;28;19956;-69
2022/02/08 10:22:02;;;;;;;;;;;;;;;;;;4745525;28;20665;-68
2022/02/08 10:24:32;;;;;;;;;;;;;;;;;;4748014;28;20497;-68
2022/02/08 10:27:03;;;;;;;;;;;;;;;;;;4765712;28;22950;-68
2022/02/08 10:29:45;;;;;;;;;;;;;;;;;;4751218;28;20789;-69
2022/02/08 10:40:06;;;;;;;;;;;;;;;;;;4751273;28;22606;-67
2022/02/08 10:42:32;;;;;;;;;;;;;;;;;;4748021;28;20714;-67
2022/02/08 10:44:58;;;;;;;;;;;;;;;;;;4754478;28;20083;-68
2022/02/08 10:47:24;;;;;;;;;;;;;;;;;;4735395;29;19945;-69
2022/02/08 10:49:50;;;;;;;;;;;;;;;;;;4753206;28;21863;-67
2022/02/08 10:52:16;;;;;;;;;;;;;;;;;;4786117;28;20001;-67
2022/02/08 10:54:47;;;;;;;;;;;;;;;;;;4783454;28;20047;-69
2022/02/08 10:57:24;;;;;;;;;;;;;;;;;;4794403;28;19922;-68
2022/02/08 10:59:56;;;;;;;;;;;;;;;;;;4784454;28;20881;-69
2022/02/08 11:02:30;;;;;;;;;;;;;;;;;;4781892;28;19937;-67
2022/02/08 11:07:40;;;;;;;;;;;;;;;;;;4781512;28;20004;-67
2022/02/08 11:10:28;;;;;;;;;;;;;;;;;;4786453;28;19929;-68
2022/02/08 11:13:40;;;;;;;;;;;;;;;;;;4779299;28;21508;-67
2022/02/08 11:18:28;;;;;;;;;;;;;;;;;;4783310;28;19972;-68
2022/02/08 11:21:02;;;;;;;;;;;;;;;;;;4787398;28;19996;-67
2022/02/08 11:23:34;;;;;;;;;;;;;;;;;;4781729;28;19914;-67
2022/02/08 11:26:01;;;;;;;;;;;;;;;;;;4801465;28;19918;-69
2022/02/08 11:28:42;;;;;;;;;;;;;;;;;;4791745;28;19921;-68
2022/02/08 11:44:54;;;;;;;;;;;;;;;;;;4794562;28;21346;-68
2022/02/08 11:47:49;;;;;;;;;;;;;;;;;;4792669;28;19955;-68
2022/02/08 11:51:03;;;;;;;;;;;;;;;;;;4786756;28;19933;-68
2022/02/08 11:58:40;;;;;;;;;;;;;;;;;;4778130;28;19929;-68
2022/02/08 12:01:16;;;;;;;;;;;;;;;;;;4780263;28;19925;-68
2022/02/08 12:07:02;;;;;;;;;;;;;;;;;;4796757;28;20005;-68
2022/02/08 12:09:21;;;;;;;;;;;;;;;;;;4795852;28;19922;-68
2022/02/08 12:28:36;;;;;;;;;;;;;;;;;;4809097;28;20028;-67
2022/02/08 12:36:30;;;;;;;;;;;;;;;;;;4777200;28;19918;-68
2022/02/08 13:00:57;;;;;;;;;;;;;;;;;;4794510;28;19918;-71
2022/02/08 13:03:40;;;;;;;;;;;;;;;;;;4795624;28;19993;-67
2022/02/08 14:05:53;;;;;;;;;;;;;;;;;;4818841;28;20645;-68
2022/02/08 14:19:17;;;;;;;;;;;;;;;;;;4812921;28;20557;-68
2022/02/08 14:21:53;;;;;;;;;;;;;;;;;;4826017;28;19918;-68
2022/02/08 14:24:33;;;;;;;;;;;;;;;;;;4820912;28;20448;-68
2022/02/08 14:29:51;;;;;;;;;;;;;;;;;;4819261;28;19924;-68
2022/02/08 14:35:21;;;;;;;;;;;;;;;;;;4824087;28;20541;-68
2022/02/08 15:05:30;;;;;;;;;;;;;;;;;;4799949;28;19918;-66
2022/02/08 15:10:27;;;;;;;;;;;;;;;;;;4822224;28;19953;-66
2022/02/08 15:12:56;;;;;;;;;;;;;;;;;;4816764;28;19948;-66
2022/02/08 15:16:04;;;;;;;;;;;;;;;;;;4807787;28;19928;-67
2022/02/08 15:18:15;;;;;;;;;;;;;;;;;;4813986;28;21387;-64
2022/02/08 15:20:41;;;;;;;;;;;;;;;;;;4798706;28;19917;-67
2022/02/08 15:23:10;;;;;;;;;;;;;;;;;;4802485;28;19940;-66
2022/02/08 15:25:36;;;;;;;;;;;;;;;;;;4819513;28;19918;-66
2022/02/08 15:28:04;;;;;;;;;;;;;;;;;;4814794;28;20020;-65
2022/02/08 15:30:30;;;;;;;;;;;;;;;;;;4827585;28;20634;-66
2022/02/08 15:32:56;;;;;;;;;;;;;;;;;;4822987;28;19933;-66
2022/02/08 15:35:22;;;;;;;;;;;;;;;;;;4820061;28;19917;-67
2022/02/08 15:37:49;;;;;;;;;;;;;;;;;;4821554;28;20072;-66
2022/02/08 15:40:16;;;;;;;;;;;;;;;;;;4827925;28;20674;-67
2022/02/08 15:42:42;;;;;;;;;;;;;;;;;;4815830;28;20268;-67
2022/02/08 15:45:17;;;;;;;;;;;;;;;;;;4819223;28;20040;-67
2022/02/08 15:47:43;;;;;;;;;;;;;;;;;;4824140;28;19976;-67
2022/02/08 15:50:18;;;;;;;;;;;;;;;;;;4799066;28;20078;-67
2022/02/08 15:55:29;;;;;;;;;;;;;;;;;;4802566;28;20020;-68
2022/02/08 15:58:19;;;;;;;;;;;;;;;;;;4797224;28;19918;-66
2022/02/08 16:06:54;;;;;;;;;;;;;;;;;;4802602;28;20020;-66
2022/02/08 16:12:02;;;;;;;;;;;;;;;;;;4800903;28;20341;-65
2022/02/08 16:14:56;;;;;;;;;;;;;;;;;;4790216;28;20753;-67
2022/02/08 16:20:16;;;;;;;;;;;;;;;;;;4805413;28;19929;-67
2022/02/08 16:57:34;;;;;;;;;;;;;;;;;;4826784;28;19918;-68
2022/02/08 17:00:03;;;;;;;;;;;;;;;;;;4825260;28;19914;-66
2022/02/08 17:02:39;;;;;;;;;;;;;;;;;;4824960;28;20755;-66
2022/02/08 17:05:05;;;;;;;;;;;;;;;;;;4835702;28;19953;-66
2022/02/08 17:07:37;;;;;;;;;;;;;;;;;;4827628;28;19922;-65
2022/02/08 17:10:04;;;;;;;;;;;;;;;;;;4837377;28;20633;-65
2022/02/08 17:12:46;;;;;;;;;;;;;;;;;;4832160;28;19957;-65
2022/02/08 17:15:36;;;;;;;;;;;;;;;;;;4822792;28;20002;-65
2022/02/08 17:47:56;;;;;;;;;;;;;;;;;;4821746;28;19960;-65
2022/02/08 17:50:23;;;;;;;;;;;;;;;;;;4816396;28;20091;-67
2022/02/08 17:52:50;;;;;;;;;;;;;;;;;;4803178;28;19941;-64
2022/02/08 17:55:16;;;;;;;;;;;;;;;;;;4813873;28;19922;-65
2022/02/08 17:57:42;;;;;;;;;;;;;;;;;;4814151;28;19961;-65
2022/02/08 18:00:08;;;;;;;;;;;;;;;;;;4818746;28;20019;-64
2022/02/08 18:02:34;;;;;;;;;;;;;;;;;;4818082;28;19922;-65
2022/02/08 18:05:02;;;;;;;;;;;;;;;;;;4814285;28;20244;-64
2022/02/08 18:10:23;;;;;;;;;;;;;;;;;;4820120;28;19940;-65
2022/02/08 18:12:51;;;;;;;;;;;;;;;;;;4812123;28;20008;-65
2022/02/08 18:15:19;;;;;;;;;;;;;;;;;;4802011;28;19917;-65
2022/02/08 18:17:55;;;;;;;;;;;;;;;;;;4811283;28;19917;-65
2022/02/08 18:28:44;;;;;;;;;;;;;;;;;;4754481;29;20120;-66
2022/02/08 18:52:05;;;;;;;;;;;;;;;;;;4749713;29;20141;-64
2022/02/08 19:07:17;;;;;;;;;;;;;;;;;;4685173;29;19988;-65
2022/02/08 19:12:33;;;;;;;;;;;;;;;;;;4691824;29;19927;-64
2022/02/08 19:20:06;;;;;;;;;;;;;;;;;;4695218;29;19996;-65
2022/02/08 19:22:34;;;;;;;;;;;;;;;;;;4690467;29;19972;-64
2022/02/08 19:25:00;;;;;;;;;;;;;;;;;;4702810;29;19920;-64
2022/02/08 19:27:27;;;;;;;;;;;;;;;;;;4717195;29;19987;-64
2022/02/08 19:29:53;;;;;;;;;;;;;;;;;;4717608;29;19924;-65
2022/02/08 19:32:19;;;;;;;;;;;;;;;;;;4726638;28;22479;-65
2022/02/08 19:34:45;;;;;;;;;;;;;;;;;;4813428;28;19922;-65
2022/02/08 19:37:31;;;;;;;;;;;;;;;;;;4805371;28;19930;-64
2022/02/08 19:39:57;;;;;;;;;;;;;;;;;;4806941;28;19933;-65
2022/02/08 19:42:25;;;;;;;;;;;;;;;;;;4808562;28;21199;-64
2022/02/08 19:44:56;;;;;;;;;;;;;;;;;;4809525;28;19918;-64
2022/02/08 19:47:22;;;;;;;;;;;;;;;;;;4789007;28;19918;-65
2022/02/08 19:49:48;;;;;;;;;;;;;;;;;;4829403;28;20910;-65
2022/02/08 19:52:14;;;;;;;;;;;;;;;;;;4827892;28;20806;-66
2022/02/08 19:57:37;;;;;;;;;;;;;;;;;;4828157;28;19932;-65
2022/02/08 20:00:08;;;;;;;;;;;;;;;;;;4827008;28;19917;-64
2022/02/08 20:02:41;;;;;;;;;;;;;;;;;;4830931;28;19917;-65
2022/02/08 20:05:07;;;;;;;;;;;;;;;;;;4809705;28;20505;-64
2022/02/08 20:07:33;;;;;;;;;;;;;;;;;;4813862;28;20744;-65
2022/02/08 20:09:59;;;;;;;;;;;;;;;;;;4826319;28;19918;-66
2022/02/08 20:12:25;;;;;;;;;;;;;;;;;;4822161;28;19918;-68
2022/02/08 20:14:51;;;;;;;;;;;;;;;;;;4832953;28;20640;-66
2022/02/08 20:17:17;;;;;;;;;;;;;;;;;;4830173;28;20620;-66
2022/02/08 20:20:08;;;;;;;;;;;;;;;;;;4823721;28;19988;-66
2022/02/08 20:22:36;;;;;;;;;;;;;;;;;;4833834;28;19942;-66
2022/02/08 20:25:05;;;;;;;;;;;;;;;;;;4832099;28;19921;-66
2022/02/08 20:27:46;;;;;;;;;;;;;;;;;;4833118;28;19917;-65
2022/02/08 20:30:16;;;;;;;;;;;;;;;;;;4827751;28;20019;-65
2022/02/08 20:32:42;;;;;;;;;;;;;;;;;;4819951;28;19925;-65
2022/02/08 20:35:08;;;;;;;;;;;;;;;;;;4824878;28;20790;-65
2022/02/08 20:37:41;;;;;;;;;;;;;;;;;;4824830;28;19917;-64
2022/02/08 20:40:07;;;;;;;;;;;;;;;;;;4827244;28;20065;-67
2022/02/08 20:42:33;;;;;;;;;;;;;;;;;;4824533;28;19969;-66
2022/02/08 20:44:59;;;;;;;;;;;;;;;;;;4827164;28;19918;-66
2022/02/08 20:47:27;;;;;;;;;;;;;;;;;;4831045;28;19921;-65
2022/02/08 20:50:10;;;;;;;;;;;;;;;;;;4825621;28;20053;-65
2022/02/08 20:52:49;;;;;;;;;;;;;;;;;;4827818;28;19932;-66
2022/02/08 20:55:22;;;;;;;;;;;;;;;;;;4855257;28;19918;-65
2022/02/08 20:58:00;;;;;;;;;;;;;;;;;;4832695;28;20031;-68
2022/02/08 21:00:34;;;;;;;;;;;;;;;;;;4823424;28;20004;-64
2022/02/08 21:03:14;;;;;;;;;;;;;;;;;;4807661;28;19995;-65
2022/02/08 21:05:49;;;;;;;;;;;;;;;;;;4823232;28;19914;-67
2022/02/08 21:08:15;;;;;;;;;;;;;;;;;;4826383;28;21293;-65
2022/02/08 21:10:47;;;;;;;;;;;;;;;;;;4827060;28;19932;-65
2022/02/08 21:13:15;;;;;;;;;;;;;;;;;;4826823;28;20330;-65
2022/02/08 21:15:43;;;;;;;;;;;;;;;;;;4826340;28;19953;-65
2022/02/08 21:18:09;;;;;;;;;;;;;;;;;;4820309;28;19971;-64
2022/02/08 21:20:35;;;;;;;;;;;;;;;;;;4827568;28;19921;-65
2022/02/08 21:23:03;;;;;;;;;;;;;;;;;;4826544;28;19949;-66
2022/02/08 21:25:33;;;;;;;;;;;;;;;;;;4824820;28;20148;-66
2022/02/08 21:28:02;;;;;;;;;;;;;;;;;;4827801;28;19918;-64
2022/02/08 21:31:19;;;;;;;;;;;;;;;;;;4826460;28;19933;-65
2022/02/08 21:46:10;;;;;;;;;;;;;;;;;;4818741;28;19924;-66
2022/02/08 21:47:45;;;;;;;;;;;;;;;;;;4827104;28;20735;-65
2022/02/08 21:51:07;;;;;;;;;;;;;;;;;;4824774;28;19929;-65
2022/02/08 21:53:12;;;;;;;;;;;;;;;;;;4817737;28;19929;-65
2022/02/08 21:55:38;;;;;;;;;;;;;;;;;;4798379;28;20788;-65
2022/02/08 21:58:08;;;;;;;;;;;;;;;;;;4814012;28;19921;-65
2022/02/08 22:00:34;;;;;;;;;;;;;;;;;;4827312;28;19925;-65
2022/02/08 22:03:00;;;;;;;;;;;;;;;;;;4838139;28;20029;-65
2022/02/08 22:05:26;;;;;;;;;;;;;;;;;;4807512;28;21037;-65
2022/02/08 22:08:14;;;;;;;;;;;;;;;;;;4819598;28;22710;-67
2022/02/08 22:16:05;;;;;;;;;;;;;;;;;;4834373;28;19933;-66
2022/02/08 22:21:16;;;;;;;;;;;;;;;;;;4820533;28;20572;-64
2022/02/08 22:34:38;;;;;;;;;;;;;;;;;;4779607;28;20018;-65
2022/02/08 22:37:13;;;;;;;;;;;;;;;;;;4783430;28;20015;-65
2022/02/08 22:39:49;;;;;;;;;;;;;;;;;;4786465;28;19918;-65
2022/02/08 22:42:26;;;;;;;;;;;;;;;;;;4778834;28;20059;-65
2022/02/08 22:44:55;;;;;;;;;;;;;;;;;;4783071;28;19918;-65
2022/02/08 22:47:21;;;;;;;;;;;;;;;;;;4786758;28;20340;-65
2022/02/08 22:49:49;;;;;;;;;;;;;;;;;;4778845;28;20229;-65
2022/02/08 22:52:15;;;;;;;;;;;;;;;;;;4772802;29;19922;-65
2022/02/08 22:54:41;;;;;;;;;;;;;;;;;;4772722;29;19926;-66
2022/02/08 22:57:27;;;;;;;;;;;;;;;;;;4777425;29;20004;-66
2022/02/08 23:00:13;;;;;;;;;;;;;;;;;;4779995;29;19922;-66
2022/02/08 23:02:59;;;;;;;;;;;;;;;;;;4778243;29;19958;-65
2022/02/08 23:05:25;;;;;;;;;;;;;;;;;;4776320;29;19926;-66
2022/02/08 23:07:52;;;;;;;;;;;;;;;;;;4774974;29;19918;-65
2022/02/08 23:10:22;;;;;;;;;;;;;;;;;;4787247;28;19928;-65
2022/02/08 23:13:06;;;;;;;;;;;;;;;;;;4821261;28;19945;-65
2022/02/08 23:16:05;;;;;;;;;;;;;;;;;;4832621;28;20538;-65
2022/02/08 23:37:45;;;;;;;;;;;;;;;;;;4820657;28;20021;-65
2022/02/08 23:40:11;;;;;;;;;;;;;;;;;;4811263;28;19918;-64
2022/02/08 23:42:38;;;;;;;;;;;;;;;;;;4814757;28;20869;-64
2022/02/08 23:45:04;;;;;;;;;;;;;;;;;;4806177;28;19983;-65
2022/02/08 23:48:23;;;;;;;;;;;;;;;;;;4811160;28;19918;-65
2022/02/08 23:50:26;;;;;;;;;;;;;;;;;;4806836;28;19925;-65
2022/02/08 23:53:04;;;;;;;;;;;;;;;;;;4810844;28;19984;-67
2022/02/08 23:55:46;;;;;;;;;;;;;;;;;;4808048;28;20544;-67
2022/02/08 23:58:15;;;;;;;;;;;;;;;;;;4808819;28;19929;-67
